• Join FlightAware (Why Join?)
  • Login
  • US Flag 
10:19PM EST


 

Airport Tracker/Info


-or-


 

Live Flight TrackerFlight Track Log ✈ DLH150 ✈ 30-Apr-2012 ✈ EDDF / FRA - EDDN / NUE

Flight Track Log - Related Links

Times and Time Zones

All times are in EDT time to prevent confusion due to time zone crossing. See the DLH150 flight status page for this flight to view local times or setup timezone preferences in your user account.

Time Position Orientation Groundspeed Altitude Reporting Facility
EDT Latitude Longitude Course Direction KTS MPH feet Rate Location/Type
03:53PM 50.0175 8.5889 107° East  Level Estimated
03:54PM 49.9815 8.7717 107° East  Level Estimated
03:55PM 49.9453 8.9543 107° East  Level Estimated
03:56PM 49.9088 9.1365 107° East  Level Estimated
03:57PM 49.8720 9.3185 107° East  Level Estimated
03:58PM 49.8350 9.5003 108° East  Level Estimated
03:59PM 49.7976 9.6817 108° East  Level Estimated
04:00PM 49.7600 9.8629 108° East  Level Estimated
04:01PM 49.7221 10.0437 108° East  Level Estimated
04:02PM 49.6839 10.2243 108° East  Level Estimated
04:03PM 49.6454 10.4047 108° East  Level Estimated
04:04PM 49.6066 10.5847 108° East  Level Estimated
04:05PM 49.5676 10.7644 109° East  Level Estimated
04:06PM 49.5283 10.9439 109° East  Level Estimated
04:07PM 49.4887 11.1230 289° West  Level Estimated
04:08PM 49.5283 10.9439 109° East  Level Estimated
04:09PM 49.4887 11.1230 289° West  Level Estimated
04:10PM 49.5283 10.9439 109° East  Level Estimated
04:11PM 49.4887 11.1230 289° West  Level Estimated
04:12PM 49.5283 10.9439 109° East  Level Estimated
04:13PM 49.4887 11.1230 289° West  Level Estimated
04:14PM 49.5283 10.9439 109° East  Level Estimated
04:15PM 49.4887 11.1230 109° East  Level Estimated